Light Rain Showers Current Weather (METAR) For Innsbruck - Kranebitten Airport

All times on the weather descriptions are local

Observed at 09:50 - (7 mins ago)

Light Rain Showers

2°C

Light Rain Showers , Snow , Recent , Snow , Rain , Snow Showers
Clouds: Few Clouds at 500ft, Scattered Clouds at 1,500ft, Broken Clouds at 4,000ft
Wind: 260° at 09 knots
Visibility: 6,000m
QNH: 1016
Dew Point: 1°C
Runway in Use: Runway 26

Sunrise Today: 06:51
Sunset Today: 19:45

Forecast Weather (TAF) For Innsbruck - Kranebitten Airport

Issued at 02:00 - (29 days ago)


Runway in Use: Unable to determine, wind is clam

Forecast valid until 02:00 on Thursday

METAR/TAF RAW METAR / TAF

LOWI 010750Z 26009KT 6000 -SHRASN FEW005 SCT015 BKN040 02/01 Q1016 RESNRA TEMPO 2000 SHSN

Weather Widget

Put weather from any of our airports on your website with our weather widget.

Find Another Search

Airport Search


Please Wait Please Wait - Loading
Close
Close

Login

Username:

Password:

Remember Me:

Remember me on this computer

Forgotten your password? Get a reset password sent to your registered e-mail address

Close

User Private Message

Subject:

Message: